Terminal Aerodrome Forecast
Issued by NWS Newport/Morehead City, NC

Home | Current Version | Previous Version | Text Only | Print | Product List | Glossary On
Versions: 1 2 3 4 5 6 7 8 9 10 11 12 13 14 15
000
FTUS42 KMHX 280338 AAA
TAFEWN
TAF AMD
KEWN 280338Z 2804/2824 23013G30KT 2SM TSRA SCT010 BKN035CB
     FM280401 21008KT P6SM -RA VCTS SCT010 BKN030CB
     FM280600 22008KT P6SM SCT030
     FM281100 28005KT P6SM SCT250
     FM281700 27005KT P6SM SCT040=

USA.gov is the U.S. government's official web portal to all federal, state and local government web resources and services.